Time;durP1;ratioP1;P1;durP2;ratioP2;P2;SDS_P1;SDS_P2;PMS_P1;PMS_P2;Temp;Humidity;BMP_temperature;BMP_pressure;BME280_temperature;BME280_humidity;BME280_pressure;Samples;Min_cycle;Max_cycle;Signal;HPM_P1;HPM_P2
2022/09/05 00:00:05;;;;;;;;;1.40;1.40;;;;;26.10;42.66;101036.34;2023258;29;47234;-57
2022/09/05 00:01:15;;;;;;;;;2.00;2.00;;;;;26.11;42.76;101032.63;2015565;29;47290;-58
2022/09/05 00:02:27;;;;;;;;;2.60;2.60;;;;;26.11;42.41;101038.06;2016695;29;47562;-58
2022/09/05 00:03:39;;;;;;;;;2.00;2.00;;;;;26.13;42.53;101042.50;2023116;29;48085;-56
2022/09/05 00:05:20;;;;;;;;;3.00;3.00;;;;;26.13;42.46;101037.06;2030853;28;47904;-57
2022/09/05 00:06:24;;;;;;;;;3.60;2.00;;;;;26.11;42.63;101032.63;2023166;29;47238;-58
2022/09/05 00:07:59;;;;;;;;;1.60;1.60;;;;;26.09;42.83;101034.59;2028143;29;47350;-57
2022/09/05 00:09:17;;;;;;;;;1.80;1.80;;;;;26.09;42.55;101033.75;2007492;29;47539;-57
2022/09/05 00:10:30;;;;;;;;;2.00;2.00;;;;;26.06;42.92;101029.41;2000339;29;47089;-59
2022/09/05 00:11:57;;;;;;;;;0.40;0.40;;;;;26.03;42.98;101032.38;2001399;29;47957;-57
2022/09/05 00:13:00;;;;;;;;;2.60;2.60;;;;;26.00;43.19;101029.03;2000156;29;47830;-59
2022/09/05 00:14:10;;;;;;;;;2.40;2.40;;;;;25.98;43.35;101031.03;2005276;29;47925;-57
2022/09/05 00:15:12;;;;;;;;;3.60;3.00;;;;;25.96;42.50;101024.84;2009979;29;47552;-58
2022/09/05 00:16:28;;;;;;;;;5.60;5.60;;;;;25.94;43.03;101035.84;2015649;29;47863;-58
2022/09/05 00:17:46;;;;;;;;;5.60;4.00;;;;;25.91;43.11;101036.09;2019713;29;47842;-58
2022/09/05 00:19:09;;;;;;;;;3.20;3.20;;;;;25.90;42.79;101037.06;2020282;29;47870;-59
2022/09/05 00:20:35;;;;;;;;;3.00;3.00;;;;;25.87;43.23;101037.31;2023058;29;47787;-58
2022/09/05 00:21:56;;;;;;;;;3.00;3.00;;;;;25.85;43.69;101042.03;2017413;29;47810;-58
2022/09/05 00:23:11;;;;;;;;;2.00;2.00;;;;;25.83;43.70;101035.84;2023441;29;47841;-57
2022/09/05 00:24:31;;;;;;;;;4.60;4.00;;;;;25.81;43.81;101065.03;2007050;29;47599;-59
2022/09/05 00:26:05;;;;;;;;;3.20;3.20;;;;;25.80;43.81;101046.97;2006556;29;47761;-58
2022/09/05 00:27:14;;;;;;;;;2.40;2.00;;;;;25.77;43.32;101048.06;2018075;29;47507;-58
2022/09/05 00:28:29;;;;;;;;;3.40;3.40;;;;;25.75;43.68;101055.50;2024922;29;45635;-58
2022/09/05 00:29:36;;;;;;;;;2.80;2.00;;;;;25.75;43.83;101050.06;2030772;29;47740;-57
2022/09/05 00:31:08;;;;;;;;;3.00;3.00;;;;;25.74;43.49;101036.59;2035495;28;47618;-60
2022/09/05 00:32:14;;;;;;;;;2.00;2.00;;;;;25.74;43.48;101042.88;2015043;29;48216;-58
2022/09/05 00:33:25;;;;;;;;;1.40;1.00;;;;;25.74;43.75;101037.44;2015211;29;47787;-57
2022/09/05 00:34:41;;;;;;;;;2.80;2.80;;;;;25.71;43.57;101034.13;2014778;29;47954;-57
2022/09/05 00:36:06;;;;;;;;;2.00;2.00;;;;;25.71;43.52;101037.69;2015127;29;47499;-58
2022/09/05 00:37:09;;;;;;;;;2.00;2.00;;;;;25.70;43.65;101049.56;2015095;29;46412;-58
2022/09/05 00:38:13;;;;;;;;;2.00;2.00;;;;;25.68;43.78;101040.63;2015099;29;47936;-57
2022/09/05 00:39:24;;;;;;;;;1.00;1.00;;;;;25.67;43.74;101041.63;2015009;29;47585;-59
2022/09/05 00:40:34;;;;;;;;;2.20;2.20;;;;;25.65;43.54;101030.00;2015837;29;47467;-59
2022/09/05 00:41:36;;;;;;;;;1.00;1.00;;;;;25.63;43.84;101031.97;2015013;29;48050;-57
2022/09/05 00:42:36;;;;;;;;;1.60;1.60;;;;;25.61;43.37;101025.78;2008978;29;48016;-58
2022/09/05 00:43:42;;;;;;;;;3.00;3.00;;;;;25.62;43.84;101032.09;2029001;28;47565;-58
2022/09/05 00:44:54;;;;;;;;;1.20;1.20;;;;;25.59;44.02;101019.63;2054769;28;47715;-59
2022/09/05 00:45:57;;;;;;;;;0.60;0.60;;;;;25.59;43.88;101016.91;2054383;28;47039;-57
2022/09/05 00:47:09;;;;;;;;;2.00;2.00;;;;;25.58;43.87;101017.91;2054820;28;47447;-60
2022/09/05 00:48:24;;;;;;;;;1.00;1.00;;;;;25.59;44.09;101019.63;2054498;28;47376;-57
2022/09/05 00:50:03;;;;;;;;;2.60;2.20;;;;;25.59;43.85;101008.75;2054105;28;48037;-59
2022/09/05 00:51:36;;;;;;;;;2.60;1.60;;;;;25.60;43.93;101015.03;2046382;28;47454;-58
2022/09/05 00:52:45;;;;;;;;;1.80;1.00;;;;;25.61;43.62;101012.22;2050846;28;47782;-58
2022/09/05 00:53:56;;;;;;;;;1.40;1.40;;;;;25.64;43.79;101027.41;2054781;28;47975;-58
2022/09/05 00:55:15;;;;;;;;;1.40;1.40;;;;;25.63;43.41;101021.09;2054317;28;47808;-58
2022/09/05 00:56:40;;;;;;;;;2.00;2.00;;;;;25.65;44.05;101023.69;2054511;28;47733;-60
2022/09/05 00:58:05;;;;;;;;;2.20;1.00;;;;;25.65;43.71;101026.41;2054732;28;45366;-59
2022/09/05 00:59:33;;;;;;;;;0.00;0.00;;;;;25.64;43.91;101025.53;2054502;28;47552;-58
2022/09/05 01:00:36;;;;;;;;;2.80;2.80;;;;;25.64;43.72;101022.81;2061719;28;48044;-57
2022/09/05 01:01:46;;;;;;;;;2.00;2.00;;;;;25.64;44.05;101019.25;2059622;28;47761;-58
2022/09/05 01:02:56;;;;;;;;;2.00;2.00;;;;;25.64;43.85;101027.41;2054740;28;47292;-59
2022/09/05 01:04:23;;;;;;;;;1.20;1.20;;;;;25.63;44.05;101031.97;2054884;28;47827;-58
2022/09/05 01:05:42;;;;;;;;;2.00;2.00;;;;;25.62;44.17;101030.25;2053226;28;47843;-57
2022/09/05 01:07:20;;;;;;;;;1.00;1.00;;;;;25.62;43.58;101035.69;2054942;28;47889;-58
2022/09/05 01:08:37;;;;;;;;;1.00;1.00;;;;;25.62;43.77;101035.69;2054448;28;47541;-56
2022/09/05 01:10:02;;;;;;;;;1.25;1.25;;;;;25.62;43.64;101032.97;2065791;28;47965;-58
2022/09/05 01:11:27;;;;;;;;;1.00;1.00;;;;;25.63;43.83;101036.53;2079501;28;47574;-57
2022/09/05 01:12:42;;;;;;;;;0.75;0.75;;;;;25.61;43.82;101028.50;2087098;28;47719;-60
2022/09/05 01:14:04;;;;;;;;;1.00;1.00;;;;;25.62;43.61;101011.22;2087275;28;46606;-58
2022/09/05 01:15:18;;;;;;;;;1.00;1.00;;;;;25.63;43.84;101006.63;2087154;28;47869;-58
2022/09/05 01:16:43;;;;;;;;;1.25;1.25;;;;;25.64;44.21;101003.78;2070016;28;47456;-57
2022/09/05 01:17:57;;;;;;;;;1.20;1.20;;;;;25.65;44.19;101012.81;2068234;28;47058;-57
2022/09/05 01:19:20;;;;;;;;;2.00;1.40;;;;;25.64;44.51;101011.94;2072410;28;47555;-58
2022/09/05 01:20:39;;;;;;;;;1.80;1.80;;;;;25.64;45.23;101000.22;2079542;28;47620;-58
2022/09/05 01:22:05;;;;;;;;;2.60;2.60;;;;;25.61;45.82;100990.47;2087240;28;48140;-58
2022/09/05 01:23:29;;;;;;;;;2.00;2.00;;;;;25.60;46.57;100996.88;2104810;28;47884;-57
2022/09/05 01:24:51;;;;;;;;;3.20;3.20;;;;;25.56;46.73;100989.97;2104030;28;48235;-56
2022/09/05 01:26:22;;;;;;;;;4.60;3.20;;;;;25.52;47.39;100999.34;2105210;28;47724;-57
2022/09/05 01:27:34;;;;;;;;;2.00;2.00;;;;;25.49;48.00;100994.16;2102761;28;47163;-58
2022/09/05 01:28:40;;;;;;;;;4.00;2.00;;;;;25.44;48.68;100993.66;2096056;28;47843;-58
2022/09/05 01:29:55;;;;;;;;;2.20;2.20;;;;;25.39;49.18;101002.16;2104624;28;48218;-57
2022/09/05 01:31:10;;;;;;;;;3.40;3.40;;;;;25.33;49.23;101012.66;2104957;27;47710;-58
2022/09/05 01:32:29;;;;;;;;;2.20;2.20;;;;;25.24;49.75;101022.41;2104294;28;48550;-59
2022/09/05 01:33:54;;;;;;;;;3.00;2.20;;;;;25.15;49.96;101034.84;2096486;28;47649;-57
2022/09/05 01:35:19;;;;;;;;;3.40;3.40;;;;;25.05;50.78;101058.28;2097223;28;47891;-59
2022/09/05 01:36:32;;;;;;;;;3.20;3.20;;;;;24.97;50.09;101087.81;2096413;28;47415;-56
2022/09/05 01:37:45;;;;;;;;;2.00;2.00;;;;;24.91;50.01;101096.47;2096303;28;47515;-57
2022/09/05 01:39:24;;;;;;;;;3.20;3.20;;;;;24.88;49.87;101083.09;2096538;28;47694;-57
2022/09/05 01:40:51;;;;;;;;;5.00;3.60;;;;;24.87;49.60;101086.78;2096369;28;47919;-58
2022/09/05 01:42:07;;;;;;;;;3.00;2.00;;;;;24.85;50.18;101113.19;2087727;28;47857;-59
2022/09/05 01:43:32;;;;;;;;;5.00;4.60;;;;;24.84;50.74;101104.19;2094946;28;47583;-57
2022/09/05 01:45:03;;;;;;;;;4.60;3.60;;;;;24.81;51.51;101089.97;2097593;28;47911;-58
2022/09/05 01:46:37;;;;;;;;;3.80;2.40;;;;;24.77;51.59;101072.16;2112264;27;47494;-57
2022/09/05 01:47:52;;;;;;;;;6.40;5.00;;;;;24.73;52.37;101054.41;2112496;27;47480;-58
2022/09/05 01:49:10;;;;;;;;;3.60;3.60;;;;;24.69;51.78;101044.75;2104437;28;47521;-57
2022/09/05 01:50:39;;;;;;;;;4.40;4.40;;;;;24.67;52.19;101025.03;2099099;28;47462;-57
2022/09/05 01:51:57;;;;;;;;;4.00;3.20;;;;;24.65;52.66;101006.16;2101440;28;47268;-56
2022/09/05 01:53:32;;;;;;;;;4.25;2.75;;;;;24.65;52.79;101019.72;2112990;27;45984;-56
2022/09/05 01:55:15;;;;;;;;;4.00;4.00;;;;;24.60;53.15;101020.03;2105171;27;47507;-58
2022/09/05 01:56:37;;;;;;;;;4.25;3.50;;;;;24.53;53.44;101013.38;2070216;28;47259;-57
2022/09/05 01:57:51;;;;;;;;;5.00;3.75;;;;;24.47;53.35;101002.97;2067553;28;48137;-58
2022/09/05 01:59:10;;;;;;;;;3.25;3.00;;;;;24.41;53.60;100997.16;2062606;28;47668;-57
2022/09/05 02:00:16;;;;;;;;;4.75;4.25;;;;;24.38;53.62;100998.22;2062374;28;47810;-57
2022/09/05 02:01:41;;;;;;;;;3.00;3.00;;;;;24.38;53.43;100989.22;2061997;28;47609;-59
2022/09/05 02:03:06;;;;;;;;;1.50;1.50;;;;;24.41;53.60;100980.88;2062753;28;47970;-56
2022/09/05 02:04:12;;;;;;;;;3.25;3.25;;;;;24.42;54.06;100988.03;2062449;28;48045;-57
2022/09/05 02:05:50;;;;;;;;;5.00;4.80;;;;;24.42;54.70;100974.44;2062227;28;47812;-59
2022/09/05 02:07:06;;;;;;;;;4.00;3.00;;;;;24.36;54.15;100984.75;2062316;28;48015;-59
2022/09/05 02:08:23;;;;;;;;;3.00;3.00;;;;;24.28;54.34;101022.44;2062236;28;47764;-56
2022/09/05 02:09:54;;;;;;;;;4.00;4.00;;;;;24.24;53.67;101007.34;2062254;28;47402;-58
2022/09/05 02:11:11;;;;;;;;;2.75;2.75;;;;;24.22;53.17;101013.88;2062466;28;47371;-57
2022/09/05 02:12:14;;;;;;;;;2.75;2.75;;;;;24.23;52.96;101008.34;2061738;28;47264;-59
2022/09/05 02:13:22;;;;;;;;;3.00;3.00;;;;;24.25;52.75;101016.34;2063727;28;47946;-59
2022/09/05 02:14:39;;;;;;;;;3.25;3.25;;;;;24.25;52.55;101011.78;2063377;28;47760;-58
2022/09/05 02:15:47;;;;;;;;;2.75;2.50;;;;;24.27;52.91;101001.72;2063568;28;47361;-57
2022/09/05 02:16:48;;;;;;;;;5.00;3.00;;;;;24.30;52.97;101003.38;2060157;28;47470;-56
2022/09/05 02:17:52;;;;;;;;;2.00;2.00;;;;;24.31;52.62;100991.53;2057076;28;48234;-57
2022/09/05 02:19:03;;;;;;;;;3.50;3.50;;;;;24.31;52.77;100994.25;2064031;28;47712;-58
2022/09/05 02:20:15;;;;;;;;;4.00;4.00;;;;;24.30;52.75;101003.38;2063665;28;48007;-58
2022/09/05 02:21:24;;;;;;;;;3.00;2.00;;;;;24.27;52.95;101000.84;2063489;28;47518;-58
2022/09/05 02:22:38;;;;;;;;;3.25;2.50;;;;;24.25;53.25;101003.66;2063512;28;48097;-57
2022/09/05 02:23:41;;;;;;;;;3.00;3.00;;;;;24.23;52.88;101002.03;2063768;28;48077;-58
2022/09/05 02:24:46;;;;;;;;;4.75;3.50;;;;;24.22;53.14;101000.31;2063747;28;45732;-58
2022/09/05 02:26:15;;;;;;;;;2.75;2.25;;;;;24.20;53.52;100996.84;2063596;28;48257;-57
2022/09/05 02:27:39;;;;;;;;;4.00;3.00;;;;;24.20;52.82;101002.28;2059565;28;47610;-58
2022/09/05 02:29:06;;;;;;;;;1.00;0.75;;;;;24.21;52.93;100998.59;2063498;28;47697;-57
2022/09/05 02:30:29;;;;;;;;;3.25;3.00;;;;;24.22;52.14;100997.59;2063870;28;47783;-58
2022/09/05 02:31:44;;;;;;;;;4.00;4.00;;;;;24.22;52.10;100993.03;2068904;28;45892;-58
2022/09/05 02:33:03;;;;;;;;;1.00;1.00;;;;;24.25;51.97;101002.78;2069048;28;47531;-58
2022/09/05 02:34:14;;;;;;;;;2.25;2.25;;;;;24.28;52.38;100997.16;2096837;28;47543;-57
2022/09/05 02:35:31;;;;;;;;;2.00;2.00;;;;;24.28;52.24;101006.16;2105991;28;47431;-58
2022/09/05 02:36:59;;;;;;;;;2.25;2.25;;;;;24.30;52.21;101004.22;2106223;28;47778;-58
2022/09/05 02:38:30;;;;;;;;;3.00;3.00;;;;;24.29;52.58;100994.31;2099412;28;47359;-57
2022/09/05 02:39:31;;;;;;;;;5.75;3.00;;;;;24.28;52.13;100991.75;2097727;28;47679;-57
2022/09/05 02:40:46;;;;;;;;;2.67;2.67;;;;;24.29;52.03;101001.59;2098746;28;47867;-57
2022/09/05 02:42:08;;;;;;;;;2.00;2.00;;;;;24.29;51.79;100994.31;2096896;28;47678;-57
2022/09/05 02:43:29;;;;;;;;;2.50;1.75;;;;;24.30;51.65;100996.09;2097484;28;47659;-55
2022/09/05 02:44:45;;;;;;;;;3.00;3.00;;;;;24.31;52.05;100992.41;2103783;28;47273;-57
2022/09/05 02:46:08;;;;;;;;;4.00;3.00;;;;;24.33;51.92;100995.84;2105657;28;47658;-56
2022/09/05 02:47:21;;;;;;;;;3.75;2.25;;;;;24.34;52.02;101003.00;2106029;28;47733;-57
2022/09/05 02:48:39;;;;;;;;;1.25;1.25;;;;;24.36;51.96;101002.88;2105893;28;47459;-58
2022/09/05 02:50:12;;;;;;;;;2.75;2.75;;;;;24.34;52.16;101016.56;2098454;28;47108;-58
2022/09/05 02:51:21;;;;;;;;;3.00;3.00;;;;;24.30;52.84;101011.50;2105266;28;47862;-58
2022/09/05 02:52:25;;;;;;;;;2.50;2.50;;;;;24.27;52.31;101006.28;2109869;27;46891;-59
2022/09/05 02:53:28;;;;;;;;;3.75;3.00;;;;;24.23;52.31;101011.03;2113896;27;47487;-58
2022/09/05 02:54:41;;;;;;;;;2.25;2.25;;;;;24.19;52.04;101004.13;2097026;28;47621;-58
2022/09/05 02:55:50;;;;;;;;;3.00;3.00;;;;;24.17;52.22;101000.66;2097206;28;47720;-57
2022/09/05 02:57:02;;;;;;;;;2.00;2.00;;;;;24.16;52.38;101006.22;2099058;28;47615;-59
2022/09/05 02:58:13;;;;;;;;;3.00;3.00;;;;;24.16;51.97;101008.91;2105754;28;47631;-58
2022/09/05 02:59:32;;;;;;;;;4.75;3.00;;;;;24.18;51.92;101007.81;2097232;28;47485;-59
2022/09/05 03:00:47;;;;;;;;;3.40;3.40;;;;;24.20;51.82;101014.00;2103178;28;48052;-57
2022/09/05 03:02:30;;;;;;;;;3.00;3.00;;;;;24.19;52.20;101023.09;2105961;28;47848;-59
2022/09/05 03:03:42;;;;;;;;;4.00;4.00;;;;;24.18;52.17;101020.50;2063346;28;47980;-56
2022/09/05 03:05:03;;;;;;;;;3.75;3.75;;;;;24.14;52.49;101022.59;2065129;28;47975;-58
2022/09/05 03:06:28;;;;;;;;;3.00;3.00;;;;;24.12;52.80;101026.38;2055173;28;47387;-57
2022/09/05 03:07:56;;;;;;;;;2.25;2.25;;;;;24.11;52.31;101030.06;2055071;28;47717;-57
2022/09/05 03:09:14;;;;;;;;;2.50;2.50;;;;;24.09;52.34;101035.59;2062528;28;48063;-57
2022/09/05 03:10:26;;;;;;;;;3.25;2.25;;;;;24.10;52.26;101033.75;2058227;28;47461;-58
2022/09/05 03:12:08;;;;;;;;;3.50;3.50;;;;;24.11;52.37;101032.78;2056906;28;47425;-56
2022/09/05 03:13:14;;;;;;;;;4.00;3.00;;;;;24.10;52.24;101021.06;2038940;28;47683;-58
2022/09/05 03:14:35;;;;;;;;;1.50;1.50;;;;;24.10;52.95;101021.06;2039159;28;47807;-59
2022/09/05 03:15:50;;;;;;;;;3.00;3.00;;;;;24.08;52.40;101026.59;2039105;28;48097;-58
2022/09/05 03:17:08;;;;;;;;;4.25;4.25;;;;;24.07;52.47;101029.44;2038011;28;47576;-57
2022/09/05 03:18:45;;;;;;;;;3.00;3.00;;;;;24.07;52.22;101034.84;2035326;28;47205;-58
2022/09/05 03:20:21;;;;;;;;;4.00;3.75;;;;;24.07;52.22;101035.72;2039355;28;47591;-59
2022/09/05 03:21:44;;;;;;;;;4.80;4.00;;;;;24.04;52.58;101044.09;2038561;28;47670;-61
2022/09/05 03:23:17;;;;;;;;;3.20;3.20;;;;;24.04;53.01;101048.63;2039048;28;47805;-61
2022/09/05 03:24:26;;;;;;;;;3.60;3.60;;;;;24.03;52.86;101052.34;2038760;28;47572;-62
2022/09/05 03:25:42;;;;;;;;;3.00;3.00;;;;;24.02;52.79;101056.88;2039255;28;47827;-62
2022/09/05 03:27:20;;;;;;;;;3.40;3.40;;;;;24.01;53.13;101056.97;2039055;28;47471;-63
2022/09/05 03:29:00;;;;;;;;;3.80;3.80;;;;;24.03;53.10;101060.47;2038346;28;47748;-61
2022/09/05 03:30:36;;;;;;;;;3.40;3.40;;;;;24.04;53.14;101060.34;2031026;29;47916;-60
2022/09/05 03:32:12;;;;;;;;;3.20;3.20;;;;;24.05;53.08;101056.66;2031908;28;47889;-61
2022/09/05 03:33:40;;;;;;;;;2.00;2.00;;;;;24.05;52.76;101056.66;2016439;29;46847;-60
2022/09/05 03:35:12;;;;;;;;;2.00;2.00;;;;;24.04;53.17;101059.47;2014988;29;47726;-60
2022/09/05 03:36:30;;;;;;;;;4.00;4.00;;;;;24.02;53.38;101059.59;2015410;29;48043;-60
2022/09/05 03:37:49;;;;;;;;;2.80;2.80;;;;;23.98;53.48;101060.78;2010876;29;47432;-61
2022/09/05 03:39:35;;;;;;;;;4.40;4.40;;;;;23.94;53.84;101062.00;2014456;29;47636;-60
2022/09/05 03:40:53;;;;;;;;;3.40;3.40;;;;;23.93;53.80;101064.81;1993153;29;48433;-59
2022/09/05 03:42:08;;;;;;;;;4.80;3.40;;;;;23.92;54.18;101057.66;2007518;29;45570;-59
2022/09/05 03:43:24;;;;;;;;;4.00;4.00;;;;;23.91;53.67;101067.63;1999949;29;47091;-60
2022/09/05 03:45:03;;;;;;;;;5.00;3.20;;;;;23.92;53.91;101069.38;2006065;29;47425;-60
2022/09/05 03:46:24;;;;;;;;;4.00;4.00;;;;;23.92;54.44;101066.66;2005800;29;47711;-60
2022/09/05 03:47:55;;;;;;;;;4.40;4.40;;;;;23.93;54.44;101056.69;2003097;29;48346;-61
2022/09/05 03:49:11;;;;;;;;;3.40;3.40;;;;;23.92;54.52;101057.66;2007527;29;47635;-60
2022/09/05 03:50:22;;;;;;;;;0.00;0.00;;;;;23.93;54.45;101062.09;2007514;29;47707;-59
2022/09/05 03:51:45;;;;;;;;;5.20;5.20;;;;;23.93;54.50;101057.53;2007470;29;47640;-61
2022/09/05 03:53:12;;;;;;;;;4.00;4.00;;;;;23.93;54.90;101052.13;2007965;29;47645;-61
2022/09/05 03:54:27;;;;;;;;;4.40;4.40;;;;;23.94;54.95;101050.28;2007433;29;47564;-61
2022/09/05 03:56:05;;;;;;;;;3.00;3.00;;;;;23.95;55.06;101057.44;2007731;29;47771;-60
2022/09/05 03:57:30;;;;;;;;;4.00;4.00;;;;;23.94;55.46;101058.41;2007973;29;47426;-60
2022/09/05 03:58:54;;;;;;;;;5.60;5.60;;;;;23.95;55.23;101047.44;2007170;29;47916;-61
2022/09/05 04:00:08;;;;;;;;;4.40;4.40;;;;;23.95;55.07;101052.88;2007791;29;47658;-61
2022/09/05 04:01:23;;;;;;;;;5.40;4.60;;;;;23.94;54.88;101058.41;2007871;29;47370;-59
2022/09/05 04:02:29;;;;;;;;;4.20;4.20;;;;;23.96;54.73;101056.44;2008197;29;46076;-60
2022/09/05 04:03:41;;;;;;;;;6.60;4.00;;;;;23.96;54.96;101042.91;2007849;29;47559;-61
2022/09/05 04:05:00;;;;;;;;;5.00;5.00;;;;;23.95;54.85;101054.72;2007316;29;47994;-61
2022/09/05 04:06:14;;;;;;;;;4.20;4.20;;;;;23.94;54.99;101047.56;2007982;29;47505;-59
2022/09/05 04:07:27;;;;;;;;;6.00;4.80;;;;;23.93;54.54;101049.41;2009323;29;48256;-60
2022/09/05 04:09:07;;;;;;;;;5.40;4.00;;;;;23.93;54.54;101044.00;2020118;29;47639;-60
2022/09/05 04:10:31;;;;;;;;;5.60;5.60;;;;;23.94;54.43;101064.69;2007805;29;46037;-60
2022/09/05 04:11:38;;;;;;;;;4.00;4.00;;;;;23.93;54.97;101062.97;2038594;28;47686;-60
2022/09/05 04:13:03;;;;;;;;;2.40;2.40;;;;;23.89;55.27;101061.47;2038848;28;47680;-60
2022/09/05 04:14:10;;;;;;;;;3.20;3.20;;;;;23.89;54.90;101068.72;2038523;28;47842;-60
2022/09/05 04:15:16;;;;;;;;;4.40;4.40;;;;;23.88;54.75;101065.13;2039203;28;47673;-62
2022/09/05 04:16:31;;;;;;;;;6.40;5.20;;;;;23.88;54.94;101065.13;2039156;28;46421;-60
2022/09/05 04:17:42;;;;;;;;;4.80;4.20;;;;;23.88;55.23;101067.84;2043260;28;47486;-61
2022/09/05 04:19:12;;;;;;;;;3.40;3.40;;;;;23.90;55.36;101067.75;2063778;28;47531;-61
2022/09/05 04:20:34;;;;;;;;;5.60;5.60;;;;;23.90;55.34;101054.19;2046560;28;47537;-60
2022/09/05 04:21:43;;;;;;;;;5.40;5.40;;;;;23.89;55.83;101061.47;2043485;28;47237;-61
2022/09/05 04:23:04;;;;;;;;;5.00;4.60;;;;;23.89;55.98;101058.75;2038824;28;47604;-59
2022/09/05 04:24:33;;;;;;;;;5.00;5.00;;;;;23.89;56.04;101056.03;2041350;28;48150;-59
2022/09/05 04:25:59;;;;;;;;;5.80;5.00;;;;;23.90;56.05;101065.03;2046175;28;47641;-60
2022/09/05 04:27:20;;;;;;;;;8.00;8.00;;;;;23.91;55.87;101061.34;2046759;28;47408;-59
2022/09/05 04:28:33;;;;;;;;;5.60;5.60;;;;;23.92;56.17;101057.66;2046586;28;47852;-59
2022/09/05 04:30:00;;;;;;;;;5.40;4.40;;;;;23.92;56.11;101057.66;2046504;28;47357;-61
2022/09/05 04:31:29;;;;;;;;;8.80;7.20;;;;;23.90;56.25;101062.31;2046908;28;47982;-60
2022/09/05 04:32:35;;;;;;;;;7.00;5.20;;;;;23.88;56.23;101059.69;2046516;28;48037;-61
2022/09/05 04:34:08;;;;;;;;;5.80;5.80;;;;;23.87;56.28;101066.09;2046570;28;47203;-60
2022/09/05 04:35:27;;;;;;;;;6.00;6.00;;;;;23.87;56.43;101068.81;2046902;28;47638;-59
2022/09/05 04:36:35;;;;;;;;;5.40;5.40;;;;;23.87;56.63;101067.94;2045245;28;47601;-61
2022/09/05 04:37:38;;;;;;;;;7.40;7.40;;;;;23.87;56.56;101066.09;2046799;28;47477;-61
2022/09/05 04:38:41;;;;;;;;;6.60;6.00;;;;;23.85;56.47;101059.94;2046719;28;48314;-61
2022/09/05 04:39:42;;;;;;;;;6.60;6.40;;;;;23.85;56.82;101065.34;2044650;28;48038;-60
2022/09/05 04:40:50;;;;;;;;;8.50;8.50;;;;;23.85;56.94;101048.22;2047631;28;48286;-60
2022/09/05 04:41:58;;;;;;;;;7.60;7.20;;;;;23.84;57.12;101057.34;2046531;28;47827;-60
2022/09/05 04:43:04;;;;;;;;;6.80;6.80;;;;;23.82;57.15;101056.59;2046852;28;48059;-61
2022/09/05 04:44:13;;;;;;;;;8.80;8.60;;;;;23.82;57.10;101054.72;2045931;28;45833;-60
2022/09/05 04:45:16;;;;;;;;;6.00;6.00;;;;;23.80;57.35;101058.53;2046379;28;47587;-60
2022/09/05 04:46:39;;;;;;;;;10.40;8.80;;;;;23.80;57.28;101063.97;2046077;28;47704;-60
2022/09/05 04:47:44;;;;;;;;;8.00;8.00;;;;;23.78;57.06;101064.94;2053340;28;47955;-61
2022/09/05 04:48:53;;;;;;;;;9.80;8.00;;;;;23.77;57.26;101065.06;2063269;28;47722;-61
2022/09/05 04:50:05;;;;;;;;;7.00;6.00;;;;;23.77;57.56;101067.75;2070857;28;47442;-61
2022/09/05 04:51:23;;;;;;;;;8.00;7.00;;;;;23.74;57.74;101076.94;2070495;28;47774;-61
2022/09/05 04:52:23;;;;;;;;;9.60;9.60;;;;;23.70;57.67;101080.88;2070736;28;47521;-61
2022/09/05 04:53:35;;;;;;;;;6.50;6.50;;;;;23.68;57.31;101082.81;2070450;28;47492;-59
2022/09/05 04:54:35;;;;;;;;;9.40;8.80;;;;;23.68;57.40;101088.25;2070568;28;47920;-61
2022/09/05 04:55:43;;;;;;;;;7.25;7.25;;;;;23.67;57.47;101086.50;2070654;28;47462;-60
2022/09/05 04:56:51;;;;;;;;;9.20;9.20;;;;;23.68;57.75;101087.38;2070816;28;47809;-61
2022/09/05 04:58:06;;;;;;;;;7.40;6.20;;;;;23.68;57.69;101090.94;2083303;28;47757;-61
2022/09/05 04:59:22;;;;;;;;;8.80;8.00;;;;;23.67;57.79;101094.63;2103868;28;47387;-60
2022/09/05 05:00:52;;;;;;;;;22.80;22.80;;;;;23.69;57.76;101086.41;2102627;27;47619;-60
2022/09/05 05:01:59;;;;;;;;;16.00;15.80;;;;;23.71;57.56;101089.84;2096884;28;47837;-62
2022/09/05 05:03:10;;;;;;;;;12.00;11.80;;;;;23.70;57.70;101089.00;2096575;28;47842;-61
2022/09/05 05:04:17;;;;;;;;;10.20;10.20;;;;;23.72;57.77;101091.59;2101411;27;47884;-61
2022/09/05 05:05:51;;;;;;;;;13.60;12.20;;;;;23.72;57.50;101097.00;2103847;27;47988;-60
2022/09/05 05:07:04;;;;;;;;;10.20;9.60;;;;;23.71;58.09;101092.56;2097111;28;47767;-61
2022/09/05 05:08:12;;;;;;;;;8.40;8.40;;;;;23.72;58.37;101088.88;2096370;28;47180;-61
2022/09/05 05:09:20;;;;;;;;;9.60;8.80;;;;;23.71;57.88;101093.44;2096917;28;47359;-60
2022/09/05 05:10:26;;;;;;;;;8.00;8.00;;;;;23.70;58.22;101091.69;2103965;28;47603;-60
2022/09/05 05:11:48;;;;;;;;;11.60;8.80;;;;;23.69;57.73;101084.56;2104616;28;47615;-60
2022/09/05 05:13:13;;;;;;;;;8.00;8.00;;;;;23.67;58.11;101078.38;2105209;28;47602;-61
2022/09/05 05:14:25;;;;;;;;;7.20;7.20;;;;;23.66;58.08;101079.34;2104821;28;47823;-61
2022/09/05 05:15:29;;;;;;;;;10.20;10.00;;;;;23.68;57.87;101085.53;2109410;27;47678;-61
2022/09/05 05:16:38;;;;;;;;;7.00;7.00;;;;;23.68;58.08;101084.66;2113471;27;47418;-61
2022/09/05 05:18:08;;;;;;;;;5.00;5.00;;;;;23.68;58.23;101092.78;2104362;28;47790;-60
2022/09/05 05:19:37;;;;;;;;;8.40;8.40;;;;;23.64;57.92;101094.84;2070543;28;47462;-60
2022/09/05 05:20:43;;;;;;;;;9.60;9.60;;;;;23.63;57.94;101094.94;2049215;28;47864;-61
2022/09/05 05:21:50;;;;;;;;;9.40;9.40;;;;;23.62;57.83;101087.78;2054100;28;47675;-61
2022/09/05 05:22:53;;;;;;;;;10.60;9.00;;;;;23.63;57.58;101094.94;2054181;28;47763;-60
2022/09/05 05:24:05;;;;;;;;;8.80;7.80;;;;;23.64;57.56;101096.69;2054515;28;47417;-60
2022/09/05 05:25:10;;;;;;;;;7.80;7.80;;;;;23.64;57.77;101092.16;2053895;28;47512;-60
2022/09/05 05:26:21;;;;;;;;;12.20;11.20;;;;;23.65;58.16;101096.59;2046316;28;47249;-58
2022/09/05 05:27:30;;;;;;;;;8.00;8.00;;;;;23.65;57.85;101093.88;2047638;28;47724;-61
2022/09/05 05:28:56;;;;;;;;;12.00;10.20;;;;;23.65;57.85;101085.75;2053892;28;47496;-62
2022/09/05 05:30:23;;;;;;;;;10.00;10.00;;;;;23.66;57.63;101097.47;2054168;28;46431;-59
2022/09/05 05:31:29;;;;;;;;;12.00;11.80;;;;;23.67;57.91;101094.63;2029924;29;47932;-60
2022/09/05 05:32:35;;;;;;;;;10.40;9.80;;;;;23.69;58.05;101099.94;2030169;29;47338;-61
2022/09/05 05:33:39;;;;;;;;;9.20;9.20;;;;;23.69;57.89;101089.09;2030377;29;47279;-61
2022/09/05 05:34:48;;;;;;;;;11.00;9.20;;;;;23.70;57.90;101099.84;2030725;29;47610;-61
2022/09/05 05:35:51;;;;;;;;;11.20;11.20;;;;;23.71;58.01;101090.72;2030657;29;47838;-62
2022/09/05 05:36:59;;;;;;;;;11.40;11.40;;;;;23.73;58.06;101094.19;2030441;29;47682;-61
2022/09/05 05:38:14;;;;;;;;;11.60;10.00;;;;;23.72;58.13;101095.16;2030064;29;47768;-63
2022/09/05 05:39:24;;;;;;;;;14.20;14.20;;;;;23.71;58.07;101101.56;2026784;29;47362;-62
2022/09/05 05:40:30;;;;;;;;;8.20;8.20;;;;;23.71;57.69;101092.56;2030359;29;47766;-62
2022/09/05 05:41:53;;;;;;;;;10.40;9.40;;;;;23.70;57.79;101102.53;2024972;29;47576;-62
2022/09/05 05:43:35;;;;;;;;;9.80;9.40;;;;;23.71;58.08;101100.69;2030040;28;47736;-62
2022/09/05 05:44:37;;;;;;;;;9.40;9.40;;;;;23.73;57.71;101098.75;2007030;29;47669;-61
2022/09/05 05:45:38;;;;;;;;;10.20;10.20;;;;;23.74;57.83;101101.34;2010501;29;47426;-62
2022/09/05 05:46:43;;;;;;;;;8.75;8.75;;;;;23.76;57.76;101098.56;2014605;29;47669;-62
2022/09/05 05:47:47;;;;;;;;;9.00;9.00;;;;;23.77;57.87;101094.88;2014375;29;47309;-61
2022/09/05 05:48:54;;;;;;;;;10.00;10.00;;;;;23.79;57.64;101101.03;2014531;29;47903;-63
2022/09/05 05:50:06;;;;;;;;;12.00;12.00;;;;;23.81;57.63;101103.63;2003733;29;45952;-62
2022/09/05 05:51:22;;;;;;;;;9.80;8.60;;;;;23.81;57.58;101104.50;2013803;29;47492;-59
2022/09/05 05:53:06;;;;;;;;;7.60;7.60;;;;;23.83;57.51;101105.25;2013089;29;47570;-60
2022/09/05 05:54:15;;;;;;;;;9.40;9.20;;;;;23.84;57.45;101106.13;2014685;29;47996;-59
2022/09/05 05:55:47;;;;;;;;;9.80;9.80;;;;;23.85;57.39;101113.28;2014657;29;47457;-58
2022/09/05 05:57:24;;;;;;;;;8.40;8.40;;;;;23.84;57.11;101103.41;1988975;29;47205;-60
2022/09/05 05:58:54;;;;;;;;;10.00;10.00;;;;;23.80;57.19;101108.19;2003383;29;47913;-60